Etusivu
METAR-TAF:

METAR-TAF

Lentoasemat :

Houston, Texas, Yhdysvallat

Leveyspiiri: 29-48-18N, Pituuspiiri: 095-53-52W, korkeus merenpinnasta: 51 m

Tämänhetkinen sää

Tämä raportti tehtiin 1 tunti ja 20 minuuttia sitten, kello 23.35 UTC
tyyntä
Lämpötila 21°C
Kosteus 88%
Ilmanpaine 1016 hPa
Näkyvyys: 8.0 km
Muutamia pilviä 3000 ft:n korkeudessa
Hajanaisia pilviä 4400 ft:n korkeudessa
Hajonneita pilviä 5500 ft:n korkeudessa
heikkoa tihkusadetta

METAR: KTME 072335Z AUTO 00000KT 5SM -DZ FEW030 SCT044 BKN055 21/19 A3000 RMK AO2

Aika: 17:55 (00:55 UTC)


TAF: puuttuu

Säähavainnot ja -ennusteet yli 4000 lentoasemalta (METAR- ja TAF-raportit).

Käytössä olevat sääasemat on merkitty karttaan keltaisilla ja punaisilla pisteillä.

Aseta hiiri pisteen päälle nähdäksesi sääaseman nimen.

Klikkaa sitten nähdäksesi säähavainnot ja -ennusteet.

Kartan vaihtaminen: klikkaa mustalla rastilla varustettuja vihreitä pisteitä, niin voit zoomata sisään; viivalla varustettua vihreää pistettä, niin voit zoomata ulos tai vihreitä nuolia, niin pääset viereisille kartoille.


METAR-TAF: